Time;durP1;ratioP1;P1;durP2;ratioP2;P2;SDS_P1;SDS_P2;PMS_P1;PMS_P2;Temp;Humidity;BMP_temperature;BMP_pressure;BME280_temperature;BME280_humidity;BME280_pressure;Samples;Min_cycle;Max_cycle;Signal;HPM_P1;HPM_P2
2022/06/17 00:01:00;;;;;;;;;;;;;;;;;;5018429;28;19972;-77
2022/06/17 00:03:27;;;;;;;;;;;;;;;;;;5018948;28;19925;-77
2022/06/17 00:05:55;;;;;;;;;;;;;;;;;;5018245;28;19926;-77
2022/06/17 00:08:23;;;;;;;;;;;;;;;;;;5017875;28;19931;-77
2022/06/17 00:10:49;;;;;;;;;;;;;;;;;;5017635;28;19929;-77
2022/06/17 00:13:18;;;;;;;;;;;;;;;;;;5018521;28;19988;-77
2022/06/17 00:15:47;;;;;;;;;;;;;;;;;;5017952;28;20295;-77
2022/06/17 00:18:14;;;;;;;;;;;;;;;;;;5018524;28;20012;-77
2022/06/17 00:20:41;;;;;;;;;;;;;;;;;;5017807;28;20008;-77
2022/06/17 00:23:11;;;;;;;;;;;;;;;;;;5017874;28;20303;-77
2022/06/17 00:25:39;;;;;;;;;;;;;;;;;;5017607;28;19932;-77
2022/06/17 00:28:09;;;;;;;;;;;;;;;;;;5017998;28;19979;-77
2022/06/17 00:30:36;;;;;;;;;;;;;;;;;;5017733;28;19929;-77
2022/06/17 00:33:04;;;;;;;;;;;;;;;;;;5017372;28;20021;-77
2022/06/17 00:35:32;;;;;;;;;;;;;;;;;;5017303;28;19932;-76
2022/06/17 00:37:58;;;;;;;;;;;;;;;;;;5016301;28;20393;-76
2022/06/17 00:40:26;;;;;;;;;;;;;;;;;;5017158;28;19932;-77
2022/06/17 00:42:52;;;;;;;;;;;;;;;;;;5018580;28;19932;-76
2022/06/17 00:45:22;;;;;;;;;;;;;;;;;;5017416;28;19969;-75
2022/06/17 00:47:50;;;;;;;;;;;;;;;;;;5016832;28;19972;-75
2022/06/17 00:50:20;;;;;;;;;;;;;;;;;;5016489;28;19971;-76
2022/06/17 00:52:50;;;;;;;;;;;;;;;;;;5015508;28;20319;-76
2022/06/17 00:55:21;;;;;;;;;;;;;;;;;;5015607;28;19964;-76
2022/06/17 00:57:48;;;;;;;;;;;;;;;;;;5016028;28;19925;-76
2022/06/17 01:00:17;;;;;;;;;;;;;;;;;;5015851;28;19929;-76
2022/06/17 01:02:45;;;;;;;;;;;;;;;;;;5015533;28;19926;-76
2022/06/17 01:05:14;;;;;;;;;;;;;;;;;;5015594;28;19931;-75
2022/06/17 01:07:44;;;;;;;;;;;;;;;;;;5014214;28;19925;-76
2022/06/17 01:10:13;;;;;;;;;;;;;;;;;;5015385;28;19925;-76
2022/06/17 01:12:43;;;;;;;;;;;;;;;;;;5015585;28;19980;-76
2022/06/17 01:15:12;;;;;;;;;;;;;;;;;;5015905;28;20024;-76
2022/06/17 01:17:40;;;;;;;;;;;;;;;;;;5016143;28;19926;-76
2022/06/17 01:20:07;;;;;;;;;;;;;;;;;;5015281;28;19925;-76
2022/06/17 01:22:38;;;;;;;;;;;;;;;;;;5015089;28;20020;-76
2022/06/17 01:25:06;;;;;;;;;;;;;;;;;;5014707;28;19981;-75
2022/06/17 01:27:34;;;;;;;;;;;;;;;;;;5014804;28;19972;-75
2022/06/17 01:30:01;;;;;;;;;;;;;;;;;;5014291;28;20303;-75
2022/06/17 01:32:30;;;;;;;;;;;;;;;;;;5014917;28;20245;-75
2022/06/17 01:34:57;;;;;;;;;;;;;;;;;;5014781;28;20001;-75
2022/06/17 01:37:24;;;;;;;;;;;;;;;;;;5015157;28;19926;-76
2022/06/17 01:39:51;;;;;;;;;;;;;;;;;;5015403;28;19929;-76
2022/06/17 01:42:18;;;;;;;;;;;;;;;;;;5015853;28;19988;-76
2022/06/17 01:44:45;;;;;;;;;;;;;;;;;;5015785;28;20025;-74
2022/06/17 01:47:12;;;;;;;;;;;;;;;;;;5015311;28;20312;-74
2022/06/17 01:49:40;;;;;;;;;;;;;;;;;;5015315;28;19932;-74
2022/06/17 01:52:09;;;;;;;;;;;;;;;;;;5014531;28;19926;-74
2022/06/17 01:54:38;;;;;;;;;;;;;;;;;;5014163;28;20384;-76
2022/06/17 01:57:08;;;;;;;;;;;;;;;;;;5013840;28;19968;-74
2022/06/17 01:59:37;;;;;;;;;;;;;;;;;;5013911;28;20008;-75
2022/06/17 02:02:04;;;;;;;;;;;;;;;;;;5014083;28;19925;-76
2022/06/17 02:04:33;;;;;;;;;;;;;;;;;;5013784;28;20016;-75
2022/06/17 02:07:01;;;;;;;;;;;;;;;;;;5013529;28;20303;-74
2022/06/17 02:09:28;;;;;;;;;;;;;;;;;;5013735;28;19926;-76
2022/06/17 02:11:55;;;;;;;;;;;;;;;;;;5013844;28;19948;-75
2022/06/17 02:14:23;;;;;;;;;;;;;;;;;;5013695;28;19972;-75
2022/06/17 02:16:52;;;;;;;;;;;;;;;;;;5013304;28;19925;-75
2022/06/17 02:19:19;;;;;;;;;;;;;;;;;;5013455;28;19926;-75
2022/06/17 02:21:47;;;;;;;;;;;;;;;;;;5013416;28;19931;-73
2022/06/17 02:24:15;;;;;;;;;;;;;;;;;;5013500;28;19925;-75
2022/06/17 02:26:42;;;;;;;;;;;;;;;;;;5013402;28;19925;-75
2022/06/17 02:29:10;;;;;;;;;;;;;;;;;;5013730;28;19926;-75
2022/06/17 02:31:38;;;;;;;;;;;;;;;;;;5013037;28;19979;-75
2022/06/17 02:34:06;;;;;;;;;;;;;;;;;;5013623;28;19925;-76
2022/06/17 02:36:34;;;;;;;;;;;;;;;;;;5013682;28;20016;-75
2022/06/17 02:39:01;;;;;;;;;;;;;;;;;;5013555;28;20016;-75
2022/06/17 02:41:28;;;;;;;;;;;;;;;;;;5013136;28;19926;-75
2022/06/17 02:43:57;;;;;;;;;;;;;;;;;;5012998;28;20534;-75
2022/06/17 02:46:26;;;;;;;;;;;;;;;;;;5012942;28;20016;-75
2022/06/17 02:48:55;;;;;;;;;;;;;;;;;;5013330;28;20019;-75
2022/06/17 02:51:22;;;;;;;;;;;;;;;;;;5013122;28;20008;-75
2022/06/17 02:53:48;;;;;;;;;;;;;;;;;;5013310;28;19925;-76
2022/06/17 02:56:17;;;;;;;;;;;;;;;;;;5013136;28;19977;-75
2022/06/17 02:58:46;;;;;;;;;;;;;;;;;;5012866;28;20024;-76
2022/06/17 03:01:16;;;;;;;;;;;;;;;;;;5013781;28;19932;-76
2022/06/17 03:03:43;;;;;;;;;;;;;;;;;;5014413;28;19932;-77
2022/06/17 03:06:15;;;;;;;;;;;;;;;;;;5014655;28;19925;-77
2022/06/17 03:08:43;;;;;;;;;;;;;;;;;;5014628;28;19976;-77
2022/06/17 03:11:10;;;;;;;;;;;;;;;;;;5015398;28;19931;-77
2022/06/17 03:13:37;;;;;;;;;;;;;;;;;;5015476;28;19945;-76
2022/06/17 03:16:05;;;;;;;;;;;;;;;;;;5015015;28;19969;-77
2022/06/17 03:18:32;;;;;;;;;;;;;;;;;;5014941;28;19925;-76
2022/06/17 03:20:59;;;;;;;;;;;;;;;;;;5015252;28;19933;-77
2022/06/17 03:23:30;;;;;;;;;;;;;;;;;;5015042;28;20305;-77
2022/06/17 03:26:00;;;;;;;;;;;;;;;;;;5014698;28;20016;-77
2022/06/17 03:28:28;;;;;;;;;;;;;;;;;;5014682;28;20036;-77
2022/06/17 03:30:57;;;;;;;;;;;;;;;;;;5015128;28;20017;-76
2022/06/17 03:33:27;;;;;;;;;;;;;;;;;;5015218;28;19929;-76
2022/06/17 03:35:56;;;;;;;;;;;;;;;;;;5014750;28;19925;-76
2022/06/17 03:38:27;;;;;;;;;;;;;;;;;;5014729;28;19989;-77
2022/06/17 03:40:57;;;;;;;;;;;;;;;;;;5014564;28;20311;-75
2022/06/17 03:43:26;;;;;;;;;;;;;;;;;;5014168;28;20340;-77
2022/06/17 03:45:56;;;;;;;;;;;;;;;;;;5015033;28;20020;-76
2022/06/17 03:48:28;;;;;;;;;;;;;;;;;;5014416;28;19931;-77
2022/06/17 03:50:55;;;;;;;;;;;;;;;;;;5013132;28;20008;-77
2022/06/17 03:53:25;;;;;;;;;;;;;;;;;;5013893;28;19929;-77
2022/06/17 03:55:53;;;;;;;;;;;;;;;;;;5013309;28;19932;-76
2022/06/17 03:58:21;;;;;;;;;;;;;;;;;;5013243;28;19925;-77
2022/06/17 04:00:49;;;;;;;;;;;;;;;;;;5013372;28;19925;-76
2022/06/17 04:03:16;;;;;;;;;;;;;;;;;;5013224;28;19941;-76
2022/06/17 04:05:44;;;;;;;;;;;;;;;;;;5014424;28;20028;-76
2022/06/17 04:08:12;;;;;;;;;;;;;;;;;;5014820;28;19972;-74
2022/06/17 04:10:38;;;;;;;;;;;;;;;;;;5015334;28;19961;-76
2022/06/17 04:13:06;;;;;;;;;;;;;;;;;;5014606;28;19926;-76
2022/06/17 04:15:37;;;;;;;;;;;;;;;;;;5015002;28;20008;-77
2022/06/17 04:18:03;;;;;;;;;;;;;;;;;;5016231;28;20404;-77
2022/06/17 04:20:33;;;;;;;;;;;;;;;;;;5016694;28;19925;-77
2022/06/17 04:23:02;;;;;;;;;;;;;;;;;;5016525;28;20012;-77
2022/06/17 04:25:31;;;;;;;;;;;;;;;;;;5016501;28;20037;-77
2022/06/17 04:28:02;;;;;;;;;;;;;;;;;;5023596;23;19971;-76
2022/06/17 04:30:32;;;;;;;;;;;;;;;;;;5010925;28;20434;-76
2022/06/17 04:33:02;;;;;;;;;;;;;;;;;;5012498;28;19925;-76
2022/06/17 04:35:29;;;;;;;;;;;;;;;;;;5012127;28;20388;-76
2022/06/17 04:37:55;;;;;;;;;;;;;;;;;;5012281;28;20012;-75
2022/06/17 04:40:24;;;;;;;;;;;;;;;;;;5012020;28;20395;-74
2022/06/17 04:42:52;;;;;;;;;;;;;;;;;;5014571;28;19965;-75
2022/06/17 04:45:19;;;;;;;;;;;;;;;;;;5015412;28;19926;-74
2022/06/17 04:47:48;;;;;;;;;;;;;;;;;;5015528;28;19925;-76
2022/06/17 04:50:18;;;;;;;;;;;;;;;;;;5014874;28;19926;-75
2022/06/17 04:52:45;;;;;;;;;;;;;;;;;;5015127;28;20427;-75
2022/06/17 04:55:15;;;;;;;;;;;;;;;;;;5014875;28;19932;-75
2022/06/17 04:57:42;;;;;;;;;;;;;;;;;;5014893;28;19961;-74
2022/06/17 05:00:14;;;;;;;;;;;;;;;;;;5030616;28;20028;-74
2022/06/17 05:02:41;;;;;;;;;;;;;;;;;;5034809;28;20368;-74
2022/06/17 05:05:08;;;;;;;;;;;;;;;;;;5034452;28;20449;-74
2022/06/17 05:07:39;;;;;;;;;;;;;;;;;;5034527;28;19925;-75
2022/06/17 05:10:07;;;;;;;;;;;;;;;;;;5034173;28;19971;-74
2022/06/17 05:12:35;;;;;;;;;;;;;;;;;;5034605;28;19925;-75
2022/06/17 05:15:04;;;;;;;;;;;;;;;;;;5034688;28;20017;-75
2022/06/17 05:17:31;;;;;;;;;;;;;;;;;;5034943;28;19929;-74
2022/06/17 05:19:57;;;;;;;;;;;;;;;;;;5034073;28;19929;-75
2022/06/17 05:22:26;;;;;;;;;;;;;;;;;;5034203;28;19925;-74
2022/06/17 05:24:54;;;;;;;;;;;;;;;;;;5034586;28;20380;-74
2022/06/17 05:27:20;;;;;;;;;;;;;;;;;;5033957;28;20387;-75
2022/06/17 05:29:47;;;;;;;;;;;;;;;;;;5034169;28;20307;-74
2022/06/17 05:32:14;;;;;;;;;;;;;;;;;;5034137;28;20023;-74
2022/06/17 05:34:41;;;;;;;;;;;;;;;;;;5033929;28;19925;-74
2022/06/17 05:37:07;;;;;;;;;;;;;;;;;;5034044;28;20017;-74
2022/06/17 05:39:36;;;;;;;;;;;;;;;;;;5034109;28;19932;-74
2022/06/17 05:42:05;;;;;;;;;;;;;;;;;;5034232;28;19925;-75
2022/06/17 05:44:31;;;;;;;;;;;;;;;;;;5033375;28;19929;-75
2022/06/17 05:46:58;;;;;;;;;;;;;;;;;;5033758;28;19936;-75
2022/06/17 05:49:24;;;;;;;;;;;;;;;;;;5033420;28;19932;-75
2022/06/17 05:51:51;;;;;;;;;;;;;;;;;;5033331;28;20016;-75
2022/06/17 05:54:18;;;;;;;;;;;;;;;;;;5033572;28;19925;-75
2022/06/17 05:56:44;;;;;;;;;;;;;;;;;;5033928;28;19925;-74
2022/06/17 05:59:12;;;;;;;;;;;;;;;;;;5025401;28;19929;-76
2022/06/17 06:01:38;;;;;;;;;;;;;;;;;;5013508;28;19940;-76
2022/06/17 06:04:05;;;;;;;;;;;;;;;;;;5013697;28;19925;-76
2022/06/17 06:06:31;;;;;;;;;;;;;;;;;;5013833;28;19932;-77
2022/06/17 06:08:58;;;;;;;;;;;;;;;;;;5014141;28;19929;-75
2022/06/17 06:11:24;;;;;;;;;;;;;;;;;;5013691;28;20035;-75
2022/06/17 06:13:51;;;;;;;;;;;;;;;;;;5017912;28;20004;-75
2022/06/17 06:16:19;;;;;;;;;;;;;;;;;;5026029;28;20015;-75
2022/06/17 06:18:47;;;;;;;;;;;;;;;;;;5024032;28;20000;-76
2022/06/17 06:21:14;;;;;;;;;;;;;;;;;;5024648;28;20353;-75
2022/06/17 06:23:42;;;;;;;;;;;;;;;;;;5033313;28;20011;-76
2022/06/17 06:26:11;;;;;;;;;;;;;;;;;;5033562;28;19929;-75
2022/06/17 06:28:37;;;;;;;;;;;;;;;;;;5033292;28;19925;-76
2022/06/17 06:31:05;;;;;;;;;;;;;;;;;;5032386;28;20431;-75
2022/06/17 06:33:33;;;;;;;;;;;;;;;;;;5033123;28;19925;-76
2022/06/17 06:35:59;;;;;;;;;;;;;;;;;;5032124;28;19964;-76
2022/06/17 06:38:26;;;;;;;;;;;;;;;;;;5034016;28;19947;-76
2022/06/17 06:40:53;;;;;;;;;;;;;;;;;;5030823;28;19932;-76
2022/06/17 06:43:20;;;;;;;;;;;;;;;;;;5024163;28;19929;-76
2022/06/17 06:45:47;;;;;;;;;;;;;;;;;;5025490;28;20412;-76
2022/06/17 06:48:14;;;;;;;;;;;;;;;;;;5031355;28;19931;-76
2022/06/17 06:50:43;;;;;;;;;;;;;;;;;;5030065;28;20011;-75
2022/06/17 06:53:09;;;;;;;;;;;;;;;;;;5025568;28;19936;-76
2022/06/17 06:55:36;;;;;;;;;;;;;;;;;;5025516;28;20022;-76
2022/06/17 06:58:04;;;;;;;;;;;;;;;;;;5030774;28;19932;-76
2022/06/17 07:00:31;;;;;;;;;;;;;;;;;;5011379;28;20012;-76
2022/06/17 07:02:58;;;;;;;;;;;;;;;;;;5011298;28;20384;-77
2022/06/17 07:05:24;;;;;;;;;;;;;;;;;;5018771;28;19925;-76
2022/06/17 07:07:53;;;;;;;;;;;;;;;;;;5030835;28;19972;-76
2022/06/17 07:10:22;;;;;;;;;;;;;;;;;;5030443;28;19925;-76
2022/06/17 07:12:49;;;;;;;;;;;;;;;;;;5030803;28;19924;-76
2022/06/17 07:15:16;;;;;;;;;;;;;;;;;;5030882;28;20414;-76
2022/06/17 07:17:47;;;;;;;;;;;;;;;;;;5030564;28;19925;-76
2022/06/17 07:20:13;;;;;;;;;;;;;;;;;;5030586;28;20329;-76
2022/06/17 07:22:40;;;;;;;;;;;;;;;;;;5030417;28;20395;-76
2022/06/17 07:25:08;;;;;;;;;;;;;;;;;;5030800;28;19972;-76
2022/06/17 07:27:34;;;;;;;;;;;;;;;;;;5029685;28;19925;-76
2022/06/17 07:30:01;;;;;;;;;;;;;;;;;;5030446;28;19968;-76
2022/06/17 07:32:27;;;;;;;;;;;;;;;;;;5030505;28;19925;-73
2022/06/17 07:34:54;;;;;;;;;;;;;;;;;;5030436;28;19983;-74
2022/06/17 07:40:04;;;;;;;;;;;;;;;;;;5030003;28;19932;-75
2022/06/17 07:42:38;;;;;;;;;;;;;;;;;;5030140;28;20017;-75
2022/06/17 07:45:06;;;;;;;;;;;;;;;;;;5028572;28;19972;-75
2022/06/17 07:47:32;;;;;;;;;;;;;;;;;;5030834;28;19925;-76
2022/06/17 07:49:59;;;;;;;;;;;;;;;;;;5029214;28;19948;-76
2022/06/17 07:52:25;;;;;;;;;;;;;;;;;;5030112;28;19926;-76
2022/06/17 07:54:52;;;;;;;;;;;;;;;;;;5030235;28;19925;-76
2022/06/17 07:57:18;;;;;;;;;;;;;;;;;;5030134;28;19925;-75
2022/06/17 07:59:46;;;;;;;;;;;;;;;;;;5029425;28;20012;-75
2022/06/17 08:02:12;;;;;;;;;;;;;;;;;;5029526;28;20332;-75
2022/06/17 08:04:40;;;;;;;;;;;;;;;;;;5029618;28;20024;-76
2022/06/17 08:07:07;;;;;;;;;;;;;;;;;;5029795;28;19931;-76
2022/06/17 08:09:33;;;;;;;;;;;;;;;;;;5029862;28;20056;-76
2022/06/17 08:12:00;;;;;;;;;;;;;;;;;;5030087;28;20029;-76
2022/06/17 08:14:26;;;;;;;;;;;;;;;;;;5029001;28;20351;-76
2022/06/17 08:16:54;;;;;;;;;;;;;;;;;;5033135;28;20000;-75
2022/06/17 08:19:21;;;;;;;;;;;;;;;;;;5033166;28;19929;-75
2022/06/17 08:21:47;;;;;;;;;;;;;;;;;;5033602;28;20028;-76
2022/06/17 08:24:14;;;;;;;;;;;;;;;;;;5033809;28;20012;-76
2022/06/17 08:26:40;;;;;;;;;;;;;;;;;;5033417;28;19929;-73
2022/06/17 08:29:06;;;;;;;;;;;;;;;;;;5033174;28;20031;-74
2022/06/17 08:31:33;;;;;;;;;;;;;;;;;;5032956;28;19933;-76
2022/06/17 08:34:01;;;;;;;;;;;;;;;;;;5033387;28;19980;-74
2022/06/17 08:36:28;;;;;;;;;;;;;;;;;;5033366;28;19933;-74
2022/06/17 08:38:57;;;;;;;;;;;;;;;;;;5033291;28;19971;-74
2022/06/17 08:41:28;;;;;;;;;;;;;;;;;;5032813;28;20021;-74
2022/06/17 08:44:12;;;;;;;;;;;;;;;;;;5033039;28;19948;-74
2022/06/17 08:46:44;;;;;;;;;;;;;;;;;;5022460;28;20035;-74
2022/06/17 08:49:18;;;;;;;;;;;;;;;;;;5033254;28;19929;-74
2022/06/17 08:51:53;;;;;;;;;;;;;;;;;;5032683;28;19980;-74
2022/06/17 08:54:25;;;;;;;;;;;;;;;;;;5032844;28;19932;-75
2022/06/17 08:56:56;;;;;;;;;;;;;;;;;;5032802;28;19936;-74
2022/06/17 08:59:31;;;;;;;;;;;;;;;;;;5022590;28;19972;-74
2022/06/17 09:02:02;;;;;;;;;;;;;;;;;;5013277;28;19937;-75
2022/06/17 09:04:35;;;;;;;;;;;;;;;;;;5013097;28;20028;-75
2022/06/17 09:07:09;;;;;;;;;;;;;;;;;;5012650;28;20013;-74
2022/06/17 09:09:44;;;;;;;;;;;;;;;;;;5012269;28;20089;-74
2022/06/17 09:12:15;;;;;;;;;;;;;;;;;;5012948;28;19997;-74
2022/06/17 09:14:47;;;;;;;;;;;;;;;;;;5013046;28;19929;-74
2022/06/17 09:17:16;;;;;;;;;;;;;;;;;;5012530;28;20316;-75
2022/06/17 09:19:45;;;;;;;;;;;;;;;;;;5012246;28;20016;-75
2022/06/17 09:22:14;;;;;;;;;;;;;;;;;;5012704;28;19972;-75
2022/06/17 09:24:42;;;;;;;;;;;;;;;;;;5013589;28;20536;-75
2022/06/17 09:27:10;;;;;;;;;;;;;;;;;;5014387;28;20420;-75
2022/06/17 09:29:39;;;;;;;;;;;;;;;;;;5012148;28;20404;-75
2022/06/17 09:32:08;;;;;;;;;;;;;;;;;;5012950;28;19961;-75
2022/06/17 09:34:39;;;;;;;;;;;;;;;;;;5012196;28;19973;-76
2022/06/17 09:37:09;;;;;;;;;;;;;;;;;;5012420;28;20020;-76
2022/06/17 09:39:41;;;;;;;;;;;;;;;;;;5011757;28;19965;-76
2022/06/17 09:42:10;;;;;;;;;;;;;;;;;;5012429;28;19933;-76
2022/06/17 09:44:38;;;;;;;;;;;;;;;;;;5012505;28;20013;-76
2022/06/17 09:47:08;;;;;;;;;;;;;;;;;;5011949;28;19968;-76
2022/06/17 09:49:38;;;;;;;;;;;;;;;;;;5012186;28;20227;-76
2022/06/17 09:52:07;;;;;;;;;;;;;;;;;;5012212;28;20431;-76
2022/06/17 09:54:36;;;;;;;;;;;;;;;;;;5011859;28;19925;-76
2022/06/17 09:57:07;;;;;;;;;;;;;;;;;;5012030;28;20016;-75
2022/06/17 09:59:36;;;;;;;;;;;;;;;;;;5022707;28;20004;-75
2022/06/17 10:02:12;;;;;;;;;;;;;;;;;;5031637;28;20015;-75
2022/06/17 10:04:39;;;;;;;;;;;;;;;;;;5032037;28;20028;-75
2022/06/17 10:07:09;;;;;;;;;;;;;;;;;;5031996;28;20358;-75
2022/06/17 10:09:46;;;;;;;;;;;;;;;;;;5031331;28;19972;-75
2022/06/17 10:12:17;;;;;;;;;;;;;;;;;;5031187;28;19932;-76
2022/06/17 10:14:49;;;;;;;;;;;;;;;;;;5031873;28;20016;-75
2022/06/17 10:20:08;;;;;;;;;;;;;;;;;;5031404;28;19991;-76
2022/06/17 10:22:42;;;;;;;;;;;;;;;;;;5031247;28;19991;-75
2022/06/17 10:25:19;;;;;;;;;;;;;;;;;;5031278;28;19956;-76
2022/06/17 10:27:51;;;;;;;;;;;;;;;;;;5031339;28;20012;-75
2022/06/17 10:30:21;;;;;;;;;;;;;;;;;;5062567;23;19924;-76
2022/06/17 10:32:48;;;;;;;;;;;;;;;;;;5031179;28;20020;-77
2022/06/17 10:35:19;;;;;;;;;;;;;;;;;;5032637;28;19968;-77
2022/06/17 10:37:46;;;;;;;;;;;;;;;;;;5031687;28;19925;-76
2022/06/17 10:40:17;;;;;;;;;;;;;;;;;;5041630;28;20012;-77
2022/06/17 10:42:46;;;;;;;;;;;;;;;;;;5045363;28;20019;-77
2022/06/17 10:45:14;;;;;;;;;;;;;;;;;;5045420;28;19989;-77
2022/06/17 10:47:42;;;;;;;;;;;;;;;;;;5050781;28;20001;-77
2022/06/17 10:50:16;;;;;;;;;;;;;;;;;;5050514;28;19925;-77
2022/06/17 10:52:44;;;;;;;;;;;;;;;;;;5050658;28;20387;-77
2022/06/17 10:55:16;;;;;;;;;;;;;;;;;;5050720;28;19943;-76
2022/06/17 10:58:03;;;;;;;;;;;;;;;;;;5050784;28;19929;-76
2022/06/17 11:00:32;;;;;;;;;;;;;;;;;;5031453;28;19964;-76
2022/06/17 11:03:15;;;;;;;;;;;;;;;;;;5030776;28;19925;-76
2022/06/17 11:05:41;;;;;;;;;;;;;;;;;;5030852;28;20330;-76
2022/06/17 11:08:20;;;;;;;;;;;;;;;;;;5029906;28;20445;-76
2022/06/17 11:10:52;;;;;;;;;;;;;;;;;;5030998;28;19925;-77
2022/06/17 11:13:19;;;;;;;;;;;;;;;;;;5031548;28;20446;-77
2022/06/17 11:15:48;;;;;;;;;;;;;;;;;;5030742;28;20016;-76
2022/06/17 11:18:18;;;;;;;;;;;;;;;;;;5031361;28;19925;-77
2022/06/17 11:20:54;;;;;;;;;;;;;;;;;;5029961;28;19926;-77
2022/06/17 11:23:21;;;;;;;;;;;;;;;;;;5030537;28;20391;-78
2022/06/17 11:25:48;;;;;;;;;;;;;;;;;;5030310;28;19925;-77
2022/06/17 11:28:22;;;;;;;;;;;;;;;;;;5028689;28;19971;-76
2022/06/17 11:30:54;;;;;;;;;;;;;;;;;;5029785;28;19932;-76
2022/06/17 11:33:23;;;;;;;;;;;;;;;;;;5030783;28;20008;-78
2022/06/17 11:35:57;;;;;;;;;;;;;;;;;;5030390;28;20016;-76
2022/06/17 11:38:25;;;;;;;;;;;;;;;;;;5030825;28;20020;-76
2022/06/17 11:40:52;;;;;;;;;;;;;;;;;;5030116;28;19979;-76
2022/06/17 11:43:31;;;;;;;;;;;;;;;;;;5030439;28;20352;-76
2022/06/17 11:46:06;;;;;;;;;;;;;;;;;;5030531;28;20024;-76
2022/06/17 11:48:32;;;;;;;;;;;;;;;;;;5030776;28;20403;-77
2022/06/17 11:51:00;;;;;;;;;;;;;;;;;;5032787;28;19983;-77
2022/06/17 11:53:28;;;;;;;;;;;;;;;;;;5037200;28;20527;-77
2022/06/17 11:55:54;;;;;;;;;;;;;;;;;;5039038;28;19937;-76
2022/06/17 11:58:21;;;;;;;;;;;;;;;;;;5037141;28;19931;-76
2022/06/17 12:00:49;;;;;;;;;;;;;;;;;;5036603;28;19975;-76
2022/06/17 12:03:18;;;;;;;;;;;;;;;;;;5036675;28;19925;-76
2022/06/17 12:05:55;;;;;;;;;;;;;;;;;;5033793;28;20442;-76
2022/06/17 12:08:24;;;;;;;;;;;;;;;;;;5034470;28;19990;-76
2022/06/17 12:10:51;;;;;;;;;;;;;;;;;;5034194;28;19925;-76
2022/06/17 12:13:23;;;;;;;;;;;;;;;;;;5034763;28;20007;-76
2022/06/17 12:15:52;;;;;;;;;;;;;;;;;;5034414;28;19931;-75
2022/06/17 12:18:21;;;;;;;;;;;;;;;;;;5033445;28;19925;-76
2022/06/17 12:20:53;;;;;;;;;;;;;;;;;;5033173;28;20435;-74
2022/06/17 12:23:25;;;;;;;;;;;;;;;;;;5033560;28;19925;-75
2022/06/17 12:25:54;;;;;;;;;;;;;;;;;;5033057;28;19992;-75
2022/06/17 12:28:26;;;;;;;;;;;;;;;;;;5033566;28;19979;-76
2022/06/17 12:30:59;;;;;;;;;;;;;;;;;;5033250;28;20008;-77
2022/06/17 12:33:32;;;;;;;;;;;;;;;;;;5033395;28;19986;-76
2022/06/17 12:36:02;;;;;;;;;;;;;;;;;;5033329;28;20339;-76
2022/06/17 12:38:32;;;;;;;;;;;;;;;;;;5033948;28;19931;-75
2022/06/17 12:41:07;;;;;;;;;;;;;;;;;;5034566;28;19925;-77
2022/06/17 12:43:37;;;;;;;;;;;;;;;;;;5034747;28;19968;-77
2022/06/17 12:46:04;;;;;;;;;;;;;;;;;;5034076;28;20016;-76
2022/06/17 12:48:37;;;;;;;;;;;;;;;;;;5034258;28;19935;-77
2022/06/17 12:53:58;;;;;;;;;;;;;;;;;;5034202;28;20016;-77
2022/06/17 12:56:36;;;;;;;;;;;;;;;;;;5034429;28;19929;-76
2022/06/17 12:59:07;;;;;;;;;;;;;;;;;;5040933;28;19924;-77
2022/06/17 13:01:37;;;;;;;;;;;;;;;;;;5053278;28;19972;-77
2022/06/17 13:04:28;;;;;;;;;;;;;;;;;;5053749;28;20003;-77
2022/06/17 13:06:59;;;;;;;;;;;;;;;;;;5053678;28;20025;-76
2022/06/17 13:09:29;;;;;;;;;;;;;;;;;;5053725;28;19976;-77
2022/06/17 13:12:02;;;;;;;;;;;;;;;;;;5054162;28;19968;-77
2022/06/17 13:14:35;;;;;;;;;;;;;;;;;;5053347;28;20307;-77
2022/06/17 13:17:03;;;;;;;;;;;;;;;;;;5053899;28;20031;-76
2022/06/17 13:19:33;;;;;;;;;;;;;;;;;;5053539;28;20012;-77
2022/06/17 13:22:03;;;;;;;;;;;;;;;;;;5054135;28;20295;-77
2022/06/17 13:24:34;;;;;;;;;;;;;;;;;;5053791;28;20011;-76
2022/06/17 13:27:03;;;;;;;;;;;;;;;;;;5054007;28;20024;-77
2022/06/17 13:29:33;;;;;;;;;;;;;;;;;;5053572;28;20119;-76
2022/06/17 13:32:02;;;;;;;;;;;;;;;;;;5055307;28;19925;-77
2022/06/17 13:34:30;;;;;;;;;;;;;;;;;;5053875;28;19925;-77
2022/06/17 13:37:02;;;;;;;;;;;;;;;;;;5053639;28;19947;-77
2022/06/17 13:39:30;;;;;;;;;;;;;;;;;;5053491;28;20395;-77
2022/06/17 13:41:58;;;;;;;;;;;;;;;;;;5053781;28;20013;-77
2022/06/17 13:44:30;;;;;;;;;;;;;;;;;;5054149;28;19996;-77
2022/06/17 13:46:59;;;;;;;;;;;;;;;;;;5053026;28;19925;-77
2022/06/17 13:49:33;;;;;;;;;;;;;;;;;;5053907;28;20016;-77
2022/06/17 13:52:06;;;;;;;;;;;;;;;;;;5053445;28;19924;-77
2022/06/17 13:54:37;;;;;;;;;;;;;;;;;;5052388;28;19925;-75
2022/06/17 13:57:07;;;;;;;;;;;;;;;;;;5050349;28;20370;-77
2022/06/17 13:59:36;;;;;;;;;;;;;;;;;;5031127;28;19964;-77
2022/06/17 14:02:25;;;;;;;;;;;;;;;;;;5032883;28;20442;-76
2022/06/17 14:05:11;;;;;;;;;;;;;;;;;;5032401;28;20016;-76
2022/06/17 14:08:02;;;;;;;;;;;;;;;;;;5032657;28;20277;-76
2022/06/17 14:10:37;;;;;;;;;;;;;;;;;;5032380;28;19932;-76
2022/06/17 14:13:16;;;;;;;;;;;;;;;;;;5031506;28;19980;-76
2022/06/17 14:15:46;;;;;;;;;;;;;;;;;;5031605;28;19925;-76
2022/06/17 14:18:19;;;;;;;;;;;;;;;;;;5031894;28;20016;-76
2022/06/17 14:20:46;;;;;;;;;;;;;;;;;;5031322;28;19971;-76
2022/06/17 14:23:16;;;;;;;;;;;;;;;;;;5031915;28;20016;-77
2022/06/17 14:25:50;;;;;;;;;;;;;;;;;;5031636;28;19975;-76
2022/06/17 14:28:34;;;;;;;;;;;;;;;;;;5031725;28;20003;-77
2022/06/17 14:31:30;;;;;;;;;;;;;;;;;;5032565;28;19926;-76
2022/06/17 14:34:01;;;;;;;;;;;;;;;;;;5033897;28;19935;-76
2022/06/17 14:37:01;;;;;;;;;;;;;;;;;;5033369;28;20011;-77
2022/06/17 14:39:45;;;;;;;;;;;;;;;;;;4991378;28;20488;-77
2022/06/17 14:42:14;;;;;;;;;;;;;;;;;;4991518;28;19973;-77
2022/06/17 14:44:42;;;;;;;;;;;;;;;;;;5015931;28;19980;-77
2022/06/17 14:47:35;;;;;;;;;;;;;;;;;;5031510;28;19979;-77
2022/06/17 14:50:24;;;;;;;;;;;;;;;;;;5032468;28;19932;-77
2022/06/17 14:53:05;;;;;;;;;;;;;;;;;;5033332;28;20465;-76
2022/06/17 14:55:35;;;;;;;;;;;;;;;;;;5032114;28;19933;-77
2022/06/17 14:58:12;;;;;;;;;;;;;;;;;;5030823;28;19998;-75
2022/06/17 15:00:45;;;;;;;;;;;;;;;;;;5010711;28;20016;-76
2022/06/17 15:03:15;;;;;;;;;;;;;;;;;;5010893;28;20400;-76
2022/06/17 15:05:42;;;;;;;;;;;;;;;;;;5010833;28;20359;-77
2022/06/17 15:08:15;;;;;;;;;;;;;;;;;;5010932;28;19930;-77
2022/06/17 15:10:43;;;;;;;;;;;;;;;;;;5010476;28;19926;-77
2022/06/17 15:16:00;;;;;;;;;;;;;;;;;;5010616;28;19926;-77
2022/06/17 15:18:27;;;;;;;;;;;;;;;;;;5011442;28;19925;-77
2022/06/17 15:20:55;;;;;;;;;;;;;;;;;;5010871;28;20008;-76
2022/06/17 15:23:28;;;;;;;;;;;;;;;;;;5011189;28;20024;-76
2022/06/17 15:26:08;;;;;;;;;;;;;;;;;;5022442;28;19924;-77
2022/06/17 15:28:36;;;;;;;;;;;;;;;;;;5029260;28;19925;-76
2022/06/17 15:31:07;;;;;;;;;;;;;;;;;;5029660;28;20027;-77
2022/06/17 15:33:35;;;;;;;;;;;;;;;;;;5030269;28;19983;-78
2022/06/17 15:36:02;;;;;;;;;;;;;;;;;;5030100;28;20339;-77
2022/06/17 15:38:30;;;;;;;;;;;;;;;;;;5029280;28;19932;-76
2022/06/17 15:41:12;;;;;;;;;;;;;;;;;;5030096;28;19925;-77
2022/06/17 15:43:47;;;;;;;;;;;;;;;;;;5030478;28;20369;-77
2022/06/17 15:46:15;;;;;;;;;;;;;;;;;;5030440;28;20008;-77
2022/06/17 15:48:41;;;;;;;;;;;;;;;;;;5030143;28;19947;-77
2022/06/17 15:51:12;;;;;;;;;;;;;;;;;;5029706;28;19931;-77
2022/06/17 15:53:41;;;;;;;;;;;;;;;;;;5030306;28;19982;-77
2022/06/17 15:56:13;;;;;;;;;;;;;;;;;;5028409;28;20376;-77
2022/06/17 15:58:43;;;;;;;;;;;;;;;;;;5034303;28;20494;-77
2022/06/17 16:01:15;;;;;;;;;;;;;;;;;;5050487;28;19925;-76
2022/06/17 16:03:49;;;;;;;;;;;;;;;;;;5050451;28;20269;-76
2022/06/17 16:06:25;;;;;;;;;;;;;;;;;;5043283;28;19925;-76
2022/06/17 16:08:52;;;;;;;;;;;;;;;;;;5029841;28;19980;-76
2022/06/17 16:11:23;;;;;;;;;;;;;;;;;;5029163;28;19979;-77
2022/06/17 16:13:52;;;;;;;;;;;;;;;;;;5029477;28;19925;-77
2022/06/17 16:16:21;;;;;;;;;;;;;;;;;;5030713;28;20003;-77
2022/06/17 16:19:02;;;;;;;;;;;;;;;;;;5030366;28;19929;-77
2022/06/17 16:21:37;;;;;;;;;;;;;;;;;;5030927;28;19925;-77
2022/06/17 16:24:22;;;;;;;;;;;;;;;;;;5030370;28;20435;-77
2022/06/17 16:26:50;;;;;;;;;;;;;;;;;;5029979;28;19933;-76
2022/06/17 16:29:23;;;;;;;;;;;;;;;;;;5030144;28;20047;-76
2022/06/17 16:31:55;;;;;;;;;;;;;;;;;;5031820;28;20567;-77
2022/06/17 16:34:21;;;;;;;;;;;;;;;;;;5030396;28;19960;-77
2022/06/17 16:36:53;;;;;;;;;;;;;;;;;;5031861;28;19964;-76
2022/06/17 16:39:27;;;;;;;;;;;;;;;;;;5033148;28;19979;-77
2022/06/17 16:45:18;;;;;;;;;;;;;;;;;;5034377;28;19931;-78
2022/06/17 16:47:44;;;;;;;;;;;;;;;;;;5035031;28;19926;-78
2022/06/17 16:50:11;;;;;;;;;;;;;;;;;;5034249;28;19972;-78
2022/06/17 16:52:37;;;;;;;;;;;;;;;;;;5034869;28;19987;-79
2022/06/17 16:55:04;;;;;;;;;;;;;;;;;;5034281;28;19932;-76
2022/06/17 16:57:32;;;;;;;;;;;;;;;;;;5033581;28;19925;-76
2022/06/17 17:00:00;;;;;;;;;;;;;;;;;;5047463;28;20004;-77
2022/06/17 17:02:28;;;;;;;;;;;;;;;;;;5052835;28;19924;-76
2022/06/17 17:04:55;;;;;;;;;;;;;;;;;;5053641;28;19960;-77
2022/06/17 17:07:23;;;;;;;;;;;;;;;;;;5054216;28;19924;-77
2022/06/17 17:09:50;;;;;;;;;;;;;;;;;;5053564;28;19925;-76
2022/06/17 17:12:17;;;;;;;;;;;;;;;;;;5053860;28;19964;-76
2022/06/17 17:14:44;;;;;;;;;;;;;;;;;;5052577;28;19972;-77
2022/06/17 17:17:11;;;;;;;;;;;;;;;;;;5052278;28;20387;-76